Time;durP1;ratioP1;P1;durP2;ratioP2;P2;SDS_P1;SDS_P2;PMS_P1;PMS_P2;Temp;Humidity;BMP_temperature;BMP_pressure;BME280_temperature;BME280_humidity;BME280_pressure;Samples;Min_cycle;Max_cycle;Signal;HPM_P1;HPM_P2
2022/09/08 00:00:45;;;;;;;0.20;0.20;;;;;;;;;;1888878;75;26239;-48
2022/09/08 00:03:14;;;;;;;0.10;0.10;;;;;;;;;;1900552;75;26695;-46
2022/09/08 00:05:43;;;;;;;0.10;0.10;;;;;;;;;;1900975;75;26258;-44
2022/09/08 00:08:10;;;;;;;0.33;0.20;;;;;;;;;;1873736;75;26765;-50
2022/09/08 00:10:38;;;;;;;0.17;0.17;;;;;;;;;;1881540;75;26213;-47
2022/09/08 00:13:09;;;;;;;0.20;0.20;;;;;;;;;;1898183;75;26695;-48
2022/09/08 00:15:37;;;;;;;0.10;0.10;;;;;;;;;;1874057;75;26272;-50
2022/09/08 00:18:06;;;;;;;0.10;0.10;;;;;;;;;;1892702;75;26259;-50
2022/09/08 00:20:33;;;;;;;0.10;0.10;;;;;;;;;;1876586;75;27192;-47
2022/09/08 00:23:00;;;;;;;0.20;0.20;;;;;;;;;;1899878;75;26215;-46
2022/09/08 00:25:27;;;;;;;0.15;0.15;;;;;;;;;;1879296;75;26250;-46
2022/09/08 00:27:55;;;;;;;0.20;0.20;;;;;;;;;;1893726;75;26588;-46
2022/09/08 00:30:22;;;;;;;0.20;0.20;;;;;;;;;;1887588;75;26664;-47
2022/09/08 00:32:49;;;;;;;0.15;0.15;;;;;;;;;;1881078;75;26321;-48
2022/09/08 00:35:18;;;;;;;0.30;0.20;;;;;;;;;;1862275;75;26188;-46
2022/09/08 00:37:46;;;;;;;0.20;0.20;;;;;;;;;;1873178;75;26312;-47
2022/09/08 00:40:15;;;;;;;0.23;0.23;;;;;;;;;;1873276;75;26314;-52
2022/09/08 00:42:43;;;;;;;0.10;0.10;;;;;;;;;;1875641;75;26247;-47
2022/09/08 00:45:11;;;;;;;0.10;0.10;;;;;;;;;;1883597;75;26243;-48
2022/09/08 00:47:40;;;;;;;0.10;0.10;;;;;;;;;;1888797;75;26271;-51
2022/09/08 00:50:12;;;;;;;0.10;0.10;;;;;;;;;;1889231;75;26235;-47
2022/09/08 00:52:41;;;;;;;0.20;0.20;;;;;;;;;;1895361;75;26287;-50
2022/09/08 00:55:09;;;;;;;0.20;0.20;;;;;;;;;;1879873;75;26350;-46
2022/09/08 00:57:37;;;;;;;1.00;0.40;;;;;;;;;;1872656;75;26316;-47
2022/09/08 01:00:09;;;;;;;0.20;0.20;;;;;;;;;;1885507;75;26338;-51
2022/09/08 01:02:36;;;;;;;0.10;0.10;;;;;;;;;;1879896;75;26781;-44
2022/09/08 01:05:05;;;;;;;0.10;0.10;;;;;;;;;;1885528;75;26423;-52
2022/09/08 01:13:13;;;;;;;0.65;0.28;;;;;;;;;;1872442;75;26389;-48
2022/09/08 01:15:40;;;;;;;0.25;0.25;;;;;;;;;;1879512;75;26727;-50
2022/09/08 01:18:08;;;;;;;0.10;0.10;;;;;;;;;;1869692;75;27381;-46
2022/09/08 01:20:37;;;;;;;0.20;0.20;;;;;;;;;;1882353;75;26309;-49
2022/09/08 01:23:05;;;;;;;0.20;0.20;;;;;;;;;;1899126;75;26235;-49
2022/09/08 01:25:34;;;;;;;0.28;0.28;;;;;;;;;;1886139;75;26262;-49
2022/09/08 01:28:19;;;;;;;0.10;0.10;;;;;;;;;;1871941;75;26358;-49
2022/09/08 01:30:47;;;;;;;0.20;0.20;;;;;;;;;;1905832;75;26192;-50
2022/09/08 01:33:15;;;;;;;0.20;0.20;;;;;;;;;;1891811;75;26738;-47
2022/09/08 01:35:43;;;;;;;0.20;0.20;;;;;;;;;;1890995;75;26244;-47
2022/09/08 01:38:11;;;;;;;0.20;0.20;;;;;;;;;;1873431;75;26330;-49
2022/09/08 01:40:39;;;;;;;0.10;0.10;;;;;;;;;;1870469;75;26703;-49
2022/09/08 01:43:09;;;;;;;0.20;0.20;;;;;;;;;;1884141;75;26267;-50
2022/09/08 01:45:37;;;;;;;0.17;0.17;;;;;;;;;;1900535;75;26242;-49
2022/09/08 01:48:05;;;;;;;0.20;0.20;;;;;;;;;;1882560;75;26843;-49
2022/09/08 01:50:33;;;;;;;0.20;0.20;;;;;;;;;;1887067;75;26539;-47
2022/09/08 01:53:01;;;;;;;0.20;0.20;;;;;;;;;;1881005;75;26762;-49
2022/09/08 01:55:28;;;;;;;0.20;0.20;;;;;;;;;;1893684;75;26328;-45
2022/09/08 01:57:55;;;;;;;0.30;0.30;;;;;;;;;;1884953;75;26675;-49
2022/09/08 02:00:23;;;;;;;0.10;0.10;;;;;;;;;;1883748;75;26263;-51
2022/09/08 02:02:50;;;;;;;0.57;0.15;;;;;;;;;;1889867;75;26266;-52
2022/09/08 02:05:17;;;;;;;0.10;0.10;;;;;;;;;;1892283;75;26251;-50
2022/09/08 02:07:45;;;;;;;1.25;0.23;;;;;;;;;;1895494;75;26361;-47
2022/09/08 02:10:12;;;;;;;0.23;0.23;;;;;;;;;;1889640;75;26212;-49
2022/09/08 02:12:39;;;;;;;0.30;0.30;;;;;;;;;;1888074;75;26246;-48
2022/09/08 02:15:07;;;;;;;0.20;0.20;;;;;;;;;;1899444;75;26283;-50
2022/09/08 02:17:35;;;;;;;0.10;0.10;;;;;;;;;;1896886;75;26723;-50
2022/09/08 02:20:02;;;;;;;0.20;0.20;;;;;;;;;;1880952;75;26245;-48
2022/09/08 02:22:32;;;;;;;0.10;0.10;;;;;;;;;;1884144;75;26261;-46
2022/09/08 02:24:59;;;;;;;0.17;0.17;;;;;;;;;;1873462;75;26265;-48
2022/09/08 02:27:26;;;;;;;0.20;0.20;;;;;;;;;;1883895;75;26367;-48
2022/09/08 02:29:53;;;;;;;0.20;0.20;;;;;;;;;;1872013;75;26264;-50
2022/09/08 02:32:20;;;;;;;0.10;0.10;;;;;;;;;;1900590;75;26305;-50
2022/09/08 02:34:48;;;;;;;0.20;0.20;;;;;;;;;;1900476;75;26788;-48
2022/09/08 02:37:15;;;;;;;0.30;0.30;;;;;;;;;;1896406;75;26647;-46
2022/09/08 02:39:43;;;;;;;0.10;0.10;;;;;;;;;;1886498;75;26313;-47
2022/09/08 02:42:11;;;;;;;0.20;0.20;;;;;;;;;;1892994;75;26274;-48
2022/09/08 02:44:39;;;;;;;0.20;0.20;;;;;;;;;;1868320;75;26223;-46
2022/09/08 02:47:07;;;;;;;0.23;0.23;;;;;;;;;;1884729;75;26247;-51
2022/09/08 02:49:34;;;;;;;0.20;0.20;;;;;;;;;;1872288;75;26250;-52
2022/09/08 02:52:02;;;;;;;0.30;0.30;;;;;;;;;;1888469;75;26286;-47
2022/09/08 02:54:29;;;;;;;0.13;0.13;;;;;;;;;;1888689;75;26259;-47
2022/09/08 02:56:57;;;;;;;0.20;0.20;;;;;;;;;;1888837;75;27233;-49
2022/09/08 02:59:24;;;;;;;0.23;0.23;;;;;;;;;;1878594;75;26704;-50
2022/09/08 03:01:51;;;;;;;0.40;0.40;;;;;;;;;;1888055;75;26195;-47
2022/09/08 03:04:19;;;;;;;0.10;0.10;;;;;;;;;;1889424;75;26176;-50
2022/09/08 03:06:46;;;;;;;0.20;0.20;;;;;;;;;;1897457;75;26730;-46
2022/09/08 03:09:14;;;;;;;0.23;0.23;;;;;;;;;;1897359;75;26227;-48
2022/09/08 03:11:41;;;;;;;0.10;0.10;;;;;;;;;;1872853;75;26234;-49
2022/09/08 03:14:09;;;;;;;0.05;0.05;;;;;;;;;;1884786;75;26266;-49
2022/09/08 03:16:36;;;;;;;0.20;0.20;;;;;;;;;;1888779;75;26730;-48
2022/09/08 03:19:04;;;;;;;0.00;0.00;;;;;;;;;;1890492;75;26360;-54
2022/09/08 03:21:32;;;;;;;0.30;0.30;;;;;;;;;;1866341;76;26292;-50
2022/09/08 03:24:02;;;;;;;0.20;0.20;;;;;;;;;;1871858;76;26259;-47
2022/09/08 03:26:29;;;;;;;0.20;0.20;;;;;;;;;;1882665;75;26296;-46
2022/09/08 03:28:56;;;;;;;0.30;0.30;;;;;;;;;;1880904;76;25474;-51
2022/09/08 03:31:23;;;;;;;0.20;0.20;;;;;;;;;;1882856;76;26541;-51
2022/09/08 03:33:51;;;;;;;0.10;0.10;;;;;;;;;;1884899;76;26687;-45
2022/09/08 03:36:19;;;;;;;0.10;0.10;;;;;;;;;;1884008;76;26718;-48
2022/09/08 03:38:46;;;;;;;0.20;0.20;;;;;;;;;;1881026;75;26768;-50
2022/09/08 03:41:15;;;;;;;0.10;0.10;;;;;;;;;;1882367;76;26384;-53
2022/09/08 03:43:44;;;;;;;0.62;0.13;;;;;;;;;;1882452;75;26263;-48
2022/09/08 03:46:11;;;;;;;0.20;0.20;;;;;;;;;;1873476;75;26287;-52
2022/09/08 03:48:39;;;;;;;0.10;0.10;;;;;;;;;;1882870;76;26297;-54
2022/09/08 03:51:10;;;;;;;0.17;0.17;;;;;;;;;;1881810;76;26337;-51
2022/09/08 03:53:37;;;;;;;0.10;0.10;;;;;;;;;;1882766;75;26301;-51
2022/09/08 03:56:06;;;;;;;0.15;0.15;;;;;;;;;;1871551;75;26231;-46
2022/09/08 03:58:33;;;;;;;0.10;0.10;;;;;;;;;;1877886;76;26259;-52
2022/09/08 04:01:01;;;;;;;0.17;0.17;;;;;;;;;;1874964;76;26313;-50
2022/09/08 04:03:29;;;;;;;0.10;0.10;;;;;;;;;;1876747;76;26223;-53
2022/09/08 04:05:58;;;;;;;0.10;0.10;;;;;;;;;;1868286;75;26282;-49
2022/09/08 04:08:25;;;;;;;1.22;0.20;;;;;;;;;;1884935;75;26259;-53
2022/09/08 04:10:53;;;;;;;0.10;0.10;;;;;;;;;;1878502;75;27277;-51
2022/09/08 04:13:20;;;;;;;0.10;0.10;;;;;;;;;;1880005;76;26727;-49
2022/09/08 04:15:48;;;;;;;0.17;0.17;;;;;;;;;;1892145;75;26278;-49
2022/09/08 04:18:15;;;;;;;0.20;0.20;;;;;;;;;;1896191;75;26316;-48
2022/09/08 04:20:42;;;;;;;0.20;0.20;;;;;;;;;;1890062;75;26770;-53
2022/09/08 04:23:11;;;;;;;0.10;0.10;;;;;;;;;;1894955;75;26690;-49
2022/09/08 04:25:39;;;;;;;0.17;0.17;;;;;;;;;;1888898;75;26242;-53
2022/09/08 04:28:06;;;;;;;0.10;0.10;;;;;;;;;;1895357;75;26594;-46
2022/09/08 04:30:34;;;;;;;0.47;0.15;;;;;;;;;;1892107;75;26230;-50
2022/09/08 04:33:01;;;;;;;1.50;0.30;;;;;;;;;;1897155;75;26787;-49
2022/09/08 04:35:28;;;;;;;1.35;0.30;;;;;;;;;;1900437;75;26243;-48
2022/09/08 04:37:55;;;;;;;0.23;0.23;;;;;;;;;;1882317;75;26223;-49
2022/09/08 04:40:23;;;;;;;0.20;0.20;;;;;;;;;;1880017;75;26319;-52
2022/09/08 04:42:50;;;;;;;0.10;0.10;;;;;;;;;;1888529;75;26297;-49
2022/09/08 04:45:19;;;;;;;0.20;0.20;;;;;;;;;;1886724;75;26884;-48
2022/09/08 04:47:46;;;;;;;0.10;0.10;;;;;;;;;;1891949;75;26315;-49
2022/09/08 04:50:13;;;;;;;0.60;0.25;;;;;;;;;;1893472;75;26250;-49
2022/09/08 04:52:41;;;;;;;0.50;0.50;;;;;;;;;;1890029;75;25718;-51
2022/09/08 04:55:10;;;;;;;0.30;0.20;;;;;;;;;;1889175;75;26536;-49
2022/09/08 04:57:37;;;;;;;0.20;0.20;;;;;;;;;;1882664;75;26323;-49
2022/09/08 05:00:06;;;;;;;0.10;0.10;;;;;;;;;;1883744;75;26505;-49
2022/09/08 05:02:34;;;;;;;0.40;0.30;;;;;;;;;;1888834;75;27324;-48
2022/09/08 05:05:01;;;;;;;0.10;0.10;;;;;;;;;;1883518;75;26357;-48
2022/09/08 05:07:28;;;;;;;0.20;0.20;;;;;;;;;;1881835;75;26243;-50
2022/09/08 05:09:55;;;;;;;0.30;0.30;;;;;;;;;;1882982;75;26742;-50
2022/09/08 05:12:23;;;;;;;0.30;0.30;;;;;;;;;;1891182;75;26659;-46
2022/09/08 05:14:50;;;;;;;0.30;0.30;;;;;;;;;;1885282;75;26731;-45
2022/09/08 05:17:18;;;;;;;0.30;0.30;;;;;;;;;;1890365;75;26269;-52
2022/09/08 05:19:45;;;;;;;0.28;0.28;;;;;;;;;;1876998;75;26612;-45
2022/09/08 05:22:12;;;;;;;0.88;0.20;;;;;;;;;;1880880;75;26731;-52
2022/09/08 05:24:39;;;;;;;0.30;0.30;;;;;;;;;;1893315;75;26698;-48
2022/09/08 05:27:07;;;;;;;0.62;0.28;;;;;;;;;;1874198;75;27294;-51
2022/09/08 05:29:34;;;;;;;0.30;0.30;;;;;;;;;;1880774;75;26698;-51
2022/09/08 05:32:01;;;;;;;1.55;0.40;;;;;;;;;;1890621;75;26688;-49
2022/09/08 05:34:28;;;;;;;0.30;0.30;;;;;;;;;;1889071;75;26252;-50
2022/09/08 05:36:56;;;;;;;0.40;0.40;;;;;;;;;;1881532;75;26258;-49
2022/09/08 05:39:23;;;;;;;0.37;0.37;;;;;;;;;;1882345;75;26254;-47
2022/09/08 05:41:50;;;;;;;0.30;0.30;;;;;;;;;;1890709;75;26296;-49
2022/09/08 05:44:17;;;;;;;1.87;0.50;;;;;;;;;;1887590;75;26321;-53
2022/09/08 05:46:45;;;;;;;0.65;0.50;;;;;;;;;;1890162;75;26255;-51
2022/09/08 05:49:13;;;;;;;0.90;0.47;;;;;;;;;;1896605;75;26292;-51
2022/09/08 05:51:40;;;;;;;0.33;0.33;;;;;;;;;;1893294;75;26315;-49
2022/09/08 05:54:08;;;;;;;0.72;0.47;;;;;;;;;;1891965;75;26227;-50
2022/09/08 05:56:35;;;;;;;0.50;0.50;;;;;;;;;;1873817;75;26264;-48
2022/09/08 05:59:02;;;;;;;0.50;0.50;;;;;;;;;;1889859;75;26388;-48
2022/09/08 06:01:31;;;;;;;1.75;0.90;;;;;;;;;;1868462;75;26266;-51
2022/09/08 06:03:59;;;;;;;0.35;0.35;;;;;;;;;;1869865;75;26246;-54
2022/09/08 06:06:27;;;;;;;1.07;0.40;;;;;;;;;;1870658;75;26270;-50
2022/09/08 06:08:54;;;;;;;0.50;0.50;;;;;;;;;;1889328;75;26265;-50
2022/09/08 06:11:22;;;;;;;0.28;0.28;;;;;;;;;;1898674;75;26231;-49
2022/09/08 06:13:50;;;;;;;0.57;0.40;;;;;;;;;;1880605;75;27035;-51
2022/09/08 06:16:17;;;;;;;0.40;0.40;;;;;;;;;;1875319;75;26343;-46
2022/09/08 06:18:45;;;;;;;0.37;0.37;;;;;;;;;;1889839;75;26266;-51
2022/09/08 06:21:14;;;;;;;0.65;0.53;;;;;;;;;;1869805;75;26336;-50
2022/09/08 06:23:41;;;;;;;0.40;0.40;;;;;;;;;;1871867;75;26669;-46
2022/09/08 06:26:22;;;;;;;0.45;0.40;;;;;;;;;;1892577;75;26285;-47
2022/09/08 06:28:51;;;;;;;0.45;0.40;;;;;;;;;;1897124;75;26357;-50
2022/09/08 06:31:20;;;;;;;0.40;0.40;;;;;;;;;;1875426;75;26372;-51
2022/09/08 06:33:47;;;;;;;0.20;0.20;;;;;;;;;;1899710;75;26729;-47
2022/09/08 06:36:16;;;;;;;1.12;0.25;;;;;;;;;;1885674;75;26235;-49
2022/09/08 06:38:45;;;;;;;0.78;0.40;;;;;;;;;;1893577;75;26263;-51
2022/09/08 06:41:17;;;;;;;1.65;0.40;;;;;;;;;;1880498;75;26738;-45
2022/09/08 06:43:50;;;;;;;0.30;0.30;;;;;;;;;;1876002;75;26307;-42
2022/09/08 06:46:19;;;;;;;0.30;0.30;;;;;;;;;;1887688;75;26263;-43
2022/09/08 06:48:46;;;;;;;0.20;0.20;;;;;;;;;;1892830;75;26294;-46
2022/09/08 06:51:31;;;;;;;0.40;0.40;;;;;;;;;;1889924;75;26672;-43
2022/09/08 06:54:12;;;;;;;0.30;0.30;;;;;;;;;;1893973;75;27473;-49
2022/09/08 06:56:58;;;;;;;1.25;0.30;;;;;;;;;;1888620;75;26283;-44
2022/09/08 06:59:26;;;;;;;0.68;0.37;;;;;;;;;;1885036;75;27263;-43
2022/09/08 07:01:55;;;;;;;0.23;0.23;;;;;;;;;;1891864;75;26250;-47
2022/09/08 07:04:24;;;;;;;0.37;0.30;;;;;;;;;;1897529;75;26272;-45
2022/09/08 07:07:02;;;;;;;1.55;0.40;;;;;;;;;;1890742;75;26248;-44
2022/09/08 07:09:37;;;;;;;0.30;0.30;;;;;;;;;;1890293;75;26900;-46
2022/09/08 07:12:05;;;;;;;0.30;0.30;;;;;;;;;;1881235;75;26260;-49
2022/09/08 07:14:43;;;;;;;0.30;0.30;;;;;;;;;;1872392;75;26266;-42
2022/09/08 07:17:12;;;;;;;0.20;0.20;;;;;;;;;;1885733;75;26282;-46
2022/09/08 07:19:41;;;;;;;1.10;0.20;;;;;;;;;;1885018;75;26362;-42
2022/09/08 07:22:13;;;;;;;0.30;0.30;;;;;;;;;;1882096;75;26554;-44
2022/09/08 07:24:41;;;;;;;0.42;0.42;;;;;;;;;;1903334;75;26247;-46
2022/09/08 07:27:10;;;;;;;1.10;0.20;;;;;;;;;;1893960;75;26262;-46
2022/09/08 07:29:42;;;;;;;0.30;0.30;;;;;;;;;;1898734;75;26246;-49
2022/09/08 07:32:14;;;;;;;0.20;0.20;;;;;;;;;;1897316;75;26235;-48
2022/09/08 07:34:43;;;;;;;0.30;0.30;;;;;;;;;;1906506;75;26298;-48
2022/09/08 07:37:17;;;;;;;0.30;0.30;;;;;;;;;;1879726;75;26323;-46
2022/09/08 07:39:52;;;;;;;0.20;0.20;;;;;;;;;;1888698;75;26904;-45
2022/09/08 07:42:19;;;;;;;0.30;0.30;;;;;;;;;;1882414;75;26714;-43
2022/09/08 07:44:48;;;;;;;0.30;0.30;;;;;;;;;;1893456;75;26271;-43
2022/09/08 07:47:32;;;;;;;0.30;0.30;;;;;;;;;;1889921;75;26241;-45
2022/09/08 07:50:13;;;;;;;0.20;0.20;;;;;;;;;;1900608;75;26663;-40
2022/09/08 07:52:42;;;;;;;0.30;0.30;;;;;;;;;;1902536;75;26312;-41
2022/09/08 07:55:10;;;;;;;0.28;0.28;;;;;;;;;;1903540;75;26243;-42
2022/09/08 07:57:39;;;;;;;0.30;0.30;;;;;;;;;;1872278;75;26312;-43
2022/09/08 08:00:14;;;;;;;0.30;0.30;;;;;;;;;;1877401;75;26283;-45
2022/09/08 08:02:46;;;;;;;1.55;0.28;;;;;;;;;;1901596;75;26244;-50
2022/09/08 08:05:21;;;;;;;0.20;0.20;;;;;;;;;;1896375;75;26282;-47
2022/09/08 08:08:05;;;;;;;0.30;0.30;;;;;;;;;;1874766;75;26702;-47
2022/09/08 08:10:34;;;;;;;0.28;0.28;;;;;;;;;;1883004;75;26257;-41
2022/09/08 08:13:21;;;;;;;0.20;0.20;;;;;;;;;;1886341;75;26317;-44
2022/09/08 08:15:50;;;;;;;0.30;0.30;;;;;;;;;;1799453;78;26331;-44
2022/09/08 08:18:28;;;;;;;0.30;0.30;;;;;;;;;;1815473;78;26370;-45
2022/09/08 08:21:00;;;;;;;0.35;0.28;;;;;;;;;;1834365;76;26203;-45
2022/09/08 08:23:41;;;;;;;1.30;0.40;;;;;;;;;;1869379;76;26273;-45
2022/09/08 08:26:22;;;;;;;0.30;0.30;;;;;;;;;;1874282;76;26247;-48
2022/09/08 08:28:50;;;;;;;1.47;0.40;;;;;;;;;;1877067;76;26227;-46
2022/09/08 08:31:28;;;;;;;2.12;0.30;;;;;;;;;;1880086;75;26243;-43
2022/09/08 08:33:57;;;;;;;0.30;0.30;;;;;;;;;;1876036;76;26305;-45
2022/09/08 08:36:26;;;;;;;0.20;0.20;;;;;;;;;;1879132;76;26215;-45
2022/09/08 08:38:55;;;;;;;1.25;0.30;;;;;;;;;;1876261;75;26226;-41
2022/09/08 08:41:23;;;;;;;1.65;0.30;;;;;;;;;;1871599;76;26255;-40
2022/09/08 08:43:52;;;;;;;0.30;0.30;;;;;;;;;;1880254;76;26286;-40
2022/09/08 08:46:24;;;;;;;0.20;0.20;;;;;;;;;;1874292;76;26241;-44
2022/09/08 08:48:56;;;;;;;0.57;0.40;;;;;;;;;;1874298;76;26302;-43
2022/09/08 08:51:24;;;;;;;0.28;0.28;;;;;;;;;;1879093;76;26654;-41
2022/09/08 08:53:53;;;;;;;0.30;0.30;;;;;;;;;;1880094;76;26320;-46
2022/09/08 08:56:25;;;;;;;0.23;0.23;;;;;;;;;;1869256;76;26337;-44
2022/09/08 08:59:04;;;;;;;0.30;0.30;;;;;;;;;;1871154;76;26317;-43
2022/09/08 09:01:36;;;;;;;0.85;0.37;;;;;;;;;;1851893;76;26874;-48
2022/09/08 09:04:07;;;;;;;1.45;0.30;;;;;;;;;;1859039;75;26245;-41
2022/09/08 09:06:42;;;;;;;0.33;0.33;;;;;;;;;;1859036;76;26757;-47
2022/09/08 09:09:20;;;;;;;1.67;0.30;;;;;;;;;;1837506;77;26271;-44
2022/09/08 09:11:58;;;;;;;0.37;0.30;;;;;;;;;;1860527;77;26287;-48
2022/09/08 09:14:27;;;;;;;0.50;0.40;;;;;;;;;;1862321;77;26299;-48
2022/09/08 09:16:56;;;;;;;0.33;0.28;;;;;;;;;;1869017;75;26267;-45
2022/09/08 09:19:28;;;;;;;0.23;0.23;;;;;;;;;;1884157;75;26227;-44
2022/09/08 09:22:02;;;;;;;0.20;0.20;;;;;;;;;;1882783;75;26734;-48
2022/09/08 09:24:40;;;;;;;0.80;0.25;;;;;;;;;;1883103;75;26247;-45
2022/09/08 09:27:15;;;;;;;2.17;0.30;;;;;;;;;;1881390;75;26309;-44
2022/09/08 09:29:43;;;;;;;2.33;0.45;;;;;;;;;;1874770;75;26730;-45
2022/09/08 09:32:11;;;;;;;1.35;0.35;;;;;;;;;;1902596;75;26301;-45
2022/09/08 09:34:40;;;;;;;2.55;0.20;;;;;;;;;;1895880;75;26251;-44
2022/09/08 09:37:09;;;;;;;1.17;0.30;;;;;;;;;;1900263;75;26278;-45
2022/09/08 09:39:56;;;;;;;0.20;0.20;;;;;;;;;;1885295;75;26243;-46
2022/09/08 09:42:31;;;;;;;0.50;0.30;;;;;;;;;;1879608;75;26250;-46
2022/09/08 09:45:00;;;;;;;0.55;0.42;;;;;;;;;;1881440;75;26258;-44
2022/09/08 09:47:31;;;;;;;0.20;0.20;;;;;;;;;;1856335;75;26254;-47
2022/09/08 09:50:00;;;;;;;0.28;0.28;;;;;;;;;;1892210;75;26675;-44
2022/09/08 09:52:38;;;;;;;0.72;0.30;;;;;;;;;;1891569;75;26730;-46
2022/09/08 09:55:19;;;;;;;0.47;0.40;;;;;;;;;;1889156;75;26309;-46
2022/09/08 09:58:04;;;;;;;1.15;0.40;;;;;;;;;;1879968;75;26772;-44
2022/09/08 10:00:36;;;;;;;0.42;0.42;;;;;;;;;;1878760;75;26266;-41
2022/09/08 10:03:23;;;;;;;0.20;0.20;;;;;;;;;;1890475;75;26192;-45
2022/09/08 10:06:06;;;;;;;0.23;0.23;;;;;;;;;;1895989;75;26391;-46
2022/09/08 10:08:44;;;;;;;0.47;0.40;;;;;;;;;;1827236;77;26346;-42
2022/09/08 10:11:15;;;;;;;0.37;0.33;;;;;;;;;;1867931;75;26318;-45
2022/09/08 10:14:01;;;;;;;1.12;0.30;;;;;;;;;;1847555;75;26691;-47
2022/09/08 10:16:47;;;;;;;1.65;0.40;;;;;;;;;;1893918;75;26309;-45
2022/09/08 10:19:25;;;;;;;0.30;0.30;;;;;;;;;;1874589;75;26325;-43
2022/09/08 10:21:59;;;;;;;1.35;0.40;;;;;;;;;;1877986;75;26356;-46
2022/09/08 10:24:45;;;;;;;1.35;0.30;;;;;;;;;;1887427;75;26306;-46
2022/09/08 10:27:17;;;;;;;0.30;0.30;;;;;;;;;;1885131;75;26196;-45
2022/09/08 10:30:03;;;;;;;0.28;0.28;;;;;;;;;;1892760;75;26188;-48
2022/09/08 10:32:41;;;;;;;0.20;0.20;;;;;;;;;;1896186;75;26271;-43
2022/09/08 10:35:22;;;;;;;0.20;0.20;;;;;;;;;;1876063;75;26204;-42
2022/09/08 10:38:07;;;;;;;0.30;0.30;;;;;;;;;;1877805;75;26307;-44
2022/09/08 10:40:36;;;;;;;0.30;0.30;;;;;;;;;;1879447;75;26766;-41
2022/09/08 10:43:17;;;;;;;0.23;0.23;;;;;;;;;;1880396;75;26691;-45
2022/09/08 10:45:49;;;;;;;0.20;0.20;;;;;;;;;;1898690;75;26243;-47
2022/09/08 10:48:18;;;;;;;0.20;0.20;;;;;;;;;;1896091;75;26337;-43
2022/09/08 10:50:47;;;;;;;0.30;0.30;;;;;;;;;;1886890;75;26247;-44
2022/09/08 10:53:18;;;;;;;0.30;0.30;;;;;;;;;;1877842;75;26251;-47
2022/09/08 10:56:05;;;;;;;0.23;0.23;;;;;;;;;;1897788;75;26798;-47
2022/09/08 10:58:34;;;;;;;0.40;0.40;;;;;;;;;;1892798;75;26239;-42
2022/09/08 11:01:20;;;;;;;0.30;0.30;;;;;;;;;;1876194;75;26286;-46
2022/09/08 11:04:05;;;;;;;0.33;0.20;;;;;;;;;;1881950;75;26747;-43
2022/09/08 11:06:34;;;;;;;0.30;0.30;;;;;;;;;;1887741;75;26718;-44
2022/09/08 11:09:02;;;;;;;0.20;0.20;;;;;;;;;;1865398;75;26837;-44
2022/09/08 11:11:48;;;;;;;0.28;0.28;;;;;;;;;;1877115;75;26714;-42
2022/09/08 11:14:22;;;;;;;0.20;0.20;;;;;;;;;;1900436;75;26808;-46
2022/09/08 11:17:00;;;;;;;0.20;0.20;;;;;;;;;;1859390;75;26274;-44
2022/09/08 11:19:41;;;;;;;0.30;0.30;;;;;;;;;;1889995;75;26302;-43
2022/09/08 11:22:28;;;;;;;0.20;0.20;;;;;;;;;;1881261;75;26312;-43
2022/09/08 11:24:57;;;;;;;0.28;0.28;;;;;;;;;;1802284;78;26737;-43
2022/09/08 11:27:26;;;;;;;0.30;0.30;;;;;;;;;;1794624;78;26674;-43
2022/09/08 11:29:57;;;;;;;0.30;0.30;;;;;;;;;;1829205;75;26650;-41
2022/09/08 11:32:29;;;;;;;0.30;0.30;;;;;;;;;;1884622;75;26762;-46
2022/09/08 11:34:58;;;;;;;0.30;0.30;;;;;;;;;;1898658;75;26267;-44
2022/09/08 11:37:44;;;;;;;0.37;0.37;;;;;;;;;;1894945;75;26247;-44
2022/09/08 11:40:30;;;;;;;0.40;0.40;;;;;;;;;;1896536;75;26274;-44
2022/09/08 11:42:59;;;;;;;1.35;0.25;;;;;;;;;;1898286;75;26238;-43
2022/09/08 11:45:45;;;;;;;0.30;0.30;;;;;;;;;;1873061;75;26270;-43
2022/09/08 11:48:17;;;;;;;0.20;0.20;;;;;;;;;;1889896;75;27508;-44
2022/09/08 11:50:55;;;;;;;0.20;0.20;;;;;;;;;;1887089;75;26364;-47
2022/09/08 11:53:23;;;;;;;0.30;0.30;;;;;;;;;;1879838;75;26247;-46
2022/09/08 11:55:55;;;;;;;0.40;0.40;;;;;;;;;;1897326;75;26308;-42
2022/09/08 11:58:24;;;;;;;0.28;0.28;;;;;;;;;;1879936;75;26302;-47
2022/09/08 12:01:09;;;;;;;2.65;0.40;;;;;;;;;;1890912;75;26220;-44
2022/09/08 12:03:56;;;;;;;0.45;0.40;;;;;;;;;;1893355;75;26287;-42
2022/09/08 12:06:28;;;;;;;1.98;0.33;;;;;;;;;;1884135;75;26258;-42
2022/09/08 12:08:56;;;;;;;0.20;0.20;;;;;;;;;;1886427;75;26336;-42
2022/09/08 12:11:28;;;;;;;2.25;0.23;;;;;;;;;;1884958;75;26287;-45
2022/09/08 12:14:06;;;;;;;2.05;0.45;;;;;;;;;;1892509;75;26251;-43
2022/09/08 12:16:35;;;;;;;1.02;0.30;;;;;;;;;;1890833;75;26828;-45
2022/09/08 12:19:04;;;;;;;0.30;0.30;;;;;;;;;;1881253;75;26674;-43
2022/09/08 12:21:37;;;;;;;0.28;0.28;;;;;;;;;;1886510;75;26274;-46
2022/09/08 12:24:08;;;;;;;0.30;0.30;;;;;;;;;;1898671;75;26263;-48
2022/09/08 12:26:44;;;;;;;0.30;0.30;;;;;;;;;;1866351;75;27090;-44
2022/09/08 12:29:25;;;;;;;0.20;0.20;;;;;;;;;;1863759;76;26282;-41
2022/09/08 12:32:10;;;;;;;2.08;0.47;;;;;;;;;;1880854;75;26825;-42
2022/09/08 12:34:39;;;;;;;1.25;0.37;;;;;;;;;;1892202;75;26246;-44
2022/09/08 12:37:17;;;;;;;0.30;0.30;;;;;;;;;;1883573;75;26262;-42
2022/09/08 12:39:49;;;;;;;0.30;0.30;;;;;;;;;;1891199;75;26336;-44
2022/09/08 12:42:18;;;;;;;1.10;0.20;;;;;;;;;;1906781;75;26355;-46
2022/09/08 12:44:46;;;;;;;0.20;0.20;;;;;;;;;;1908245;75;26247;-43
2022/09/08 12:47:22;;;;;;;0.20;0.20;;;;;;;;;;1890865;75;26232;-44
2022/09/08 12:49:59;;;;;;;0.20;0.20;;;;;;;;;;1891460;75;26269;-43
2022/09/08 12:52:34;;;;;;;2.17;0.40;;;;;;;;;;1893267;75;26722;-43
2022/09/08 12:55:09;;;;;;;0.20;0.20;;;;;;;;;;1865792;75;26683;-46
2022/09/08 12:57:41;;;;;;;0.33;0.33;;;;;;;;;;1885130;75;26241;-43
2022/09/08 13:00:12;;;;;;;0.42;0.42;;;;;;;;;;1895189;75;26844;-45
2022/09/08 13:02:47;;;;;;;0.95;0.40;;;;;;;;;;1892549;75;26769;-47
2022/09/08 13:05:27;;;;;;;0.53;0.30;;;;;;;;;;1881026;75;27174;-45
2022/09/08 13:08:05;;;;;;;0.40;0.40;;;;;;;;;;1885305;75;26635;-41
2022/09/08 13:10:36;;;;;;;0.42;0.35;;;;;;;;;;1883548;75;26254;-42
2022/09/08 13:13:20;;;;;;;0.40;0.33;;;;;;;;;;1875165;75;28095;-40
2022/09/08 13:16:06;;;;;;;1.92;0.20;;;;;;;;;;1912550;75;26848;-45
2022/09/08 13:18:40;;;;;;;0.78;0.30;;;;;;;;;;1897337;75;26275;-42
2022/09/08 13:21:15;;;;;;;0.30;0.30;;;;;;;;;;1877774;75;26333;-45
2022/09/08 13:23:44;;;;;;;1.72;0.30;;;;;;;;;;1874665;75;26812;-43
2022/09/08 13:26:13;;;;;;;1.65;0.40;;;;;;;;;;1844367;75;26707;-42
2022/09/08 13:28:42;;;;;;;1.30;0.30;;;;;;;;;;1882558;75;26335;-41
2022/09/08 13:31:12;;;;;;;0.30;0.30;;;;;;;;;;1886861;75;26313;-43
2022/09/08 13:33:53;;;;;;;1.10;0.40;;;;;;;;;;1884038;75;26801;-41
2022/09/08 13:36:34;;;;;;;1.65;0.30;;;;;;;;;;1881124;75;26600;-43
2022/09/08 13:39:19;;;;;;;0.20;0.20;;;;;;;;;;1823686;75;26271;-40
2022/09/08 13:41:54;;;;;;;0.30;0.30;;;;;;;;;;1881468;75;26360;-49
2022/09/08 13:44:31;;;;;;;0.35;0.35;;;;;;;;;;1883684;75;27246;-48
2022/09/08 13:47:04;;;;;;;2.37;0.60;;;;;;;;;;1881876;75;26543;-47
2022/09/08 13:49:42;;;;;;;1.55;0.50;;;;;;;;;;1880376;75;26271;-46
2022/09/08 13:52:21;;;;;;;0.30;0.30;;;;;;;;;;1890637;75;26366;-43
2022/09/08 13:54:49;;;;;;;0.93;0.40;;;;;;;;;;1898267;75;26278;-42
2022/09/08 13:57:18;;;;;;;0.80;0.45;;;;;;;;;;1876946;75;26326;-44
2022/09/08 14:00:05;;;;;;;0.85;0.30;;;;;;;;;;1861955;75;26262;-47
2022/09/08 14:02:42;;;;;;;2.30;0.42;;;;;;;;;;1870044;75;26323;-42
2022/09/08 14:05:27;;;;;;;3.22;0.60;;;;;;;;;;1869124;75;26267;-41
2022/09/08 14:07:56;;;;;;;2.02;0.45;;;;;;;;;;1885916;75;26251;-43
2022/09/08 14:10:25;;;;;;;0.72;0.40;;;;;;;;;;1877206;75;26251;-46
2022/09/08 14:12:53;;;;;;;0.45;0.45;;;;;;;;;;1893243;75;26313;-43
2022/09/08 14:15:22;;;;;;;0.35;0.35;;;;;;;;;;1880056;75;26369;-47
2022/09/08 14:18:07;;;;;;;0.50;0.50;;;;;;;;;;1879619;75;26257;-45
2022/09/08 14:20:51;;;;;;;0.50;0.50;;;;;;;;;;1869013;75;27647;-46
2022/09/08 14:23:20;;;;;;;0.40;0.40;;;;;;;;;;1888498;75;26329;-48
2022/09/08 14:25:49;;;;;;;0.40;0.40;;;;;;;;;;1877043;75;26272;-47
2022/09/08 14:28:18;;;;;;;0.40;0.40;;;;;;;;;;1883328;75;26242;-44
2022/09/08 14:30:46;;;;;;;0.85;0.40;;;;;;;;;;1895384;75;26274;-45
2022/09/08 14:33:18;;;;;;;1.50;0.50;;;;;;;;;;1894357;75;26291;-42
2022/09/08 14:35:47;;;;;;;0.40;0.40;;;;;;;;;;1902609;75;26237;-45
2022/09/08 14:38:33;;;;;;;0.95;0.50;;;;;;;;;;1889078;75;26322;-41
2022/09/08 14:41:02;;;;;;;0.50;0.50;;;;;;;;;;1894361;75;26211;-42
2022/09/08 14:43:42;;;;;;;0.40;0.40;;;;;;;;;;1900750;75;26270;-41
2022/09/08 14:46:11;;;;;;;0.40;0.40;;;;;;;;;;1893645;75;26800;-42
2022/09/08 14:48:57;;;;;;;0.50;0.50;;;;;;;;;;1899590;75;26306;-43
2022/09/08 14:51:30;;;;;;;0.30;0.30;;;;;;;;;;1895050;75;26263;-43
2022/09/08 14:53:59;;;;;;;0.40;0.40;;;;;;;;;;1894003;75;26780;-40
2022/09/08 14:56:31;;;;;;;0.30;0.30;;;;;;;;;;1892729;75;26353;-42
2022/09/08 14:59:08;;;;;;;0.40;0.40;;;;;;;;;;1890243;75;26235;-41
2022/09/08 15:01:37;;;;;;;0.62;0.62;;;;;;;;;;1827263;78;26740;-40
2022/09/08 15:04:12;;;;;;;0.95;0.30;;;;;;;;;;1889755;75;26723;-41
2022/09/08 15:06:44;;;;;;;0.50;0.50;;;;;;;;;;1870650;75;27353;-40
2022/09/08 15:09:22;;;;;;;0.30;0.30;;;;;;;;;;1871530;75;26665;-42
2022/09/08 15:11:51;;;;;;;0.45;0.45;;;;;;;;;;1873914;75;26555;-41
2022/09/08 15:14:33;;;;;;;0.53;0.53;;;;;;;;;;1893090;75;26299;-44